Time;durP1;ratioP1;P1;durP2;ratioP2;P2;SDS_P1;SDS_P2;PMS_P1;PMS_P2;Temp;Humidity;BMP_temperature;BMP_pressure;BME280_temperature;BME280_humidity;BME280_pressure;Samples;Min_cycle;Max_cycle;Signal;HPM_P1;HPM_P2
2023/06/20 00:01:54;;;;;;;;;9.40;9.40;;;;;;;;5050298;28;8905;-81
2023/06/20 00:04:21;;;;;;;;;10.40;8.40;;;;;;;;5049899;28;8865;-81
2023/06/20 00:06:49;;;;;;;;;9.80;9.80;;;;;;;;5050382;28;8988;-81
2023/06/20 00:09:16;;;;;;;;;11.00;9.60;;;;;;;;5050296;28;8943;-82
2023/06/20 00:11:43;;;;;;;;;9.60;9.60;;;;;;;;5050307;28;8858;-83
2023/06/20 00:14:12;;;;;;;;;8.40;8.40;;;;;;;;5049718;28;8958;-82
2023/06/20 00:16:40;;;;;;;;;10.80;10.80;;;;;;;;5049747;28;8992;-82
2023/06/20 00:19:08;;;;;;;;;9.00;9.00;;;;;;;;5061559;28;8966;-81
2023/06/20 00:21:35;;;;;;;;;9.00;9.00;;;;;;;;5049750;28;8867;-81
2023/06/20 00:24:03;;;;;;;;;9.00;9.00;;;;;;;;5048985;28;8880;-81
2023/06/20 00:26:30;;;;;;;;;7.40;7.40;;;;;;;;5049469;28;9007;-82
2023/06/20 00:28:57;;;;;;;;;8.20;8.20;;;;;;;;5061621;28;8969;-83
2023/06/20 00:31:24;;;;;;;;;7.80;7.80;;;;;;;;5049021;28;8901;-83
2023/06/20 00:33:56;;;;;;;;;7.00;7.00;;;;;;;;5049154;28;9016;-83
2023/06/20 00:36:25;;;;;;;;;11.20;10.40;;;;;;;;5050839;28;8931;-83
2023/06/20 00:38:52;;;;;;;;;10.20;9.00;;;;;;;;5049621;28;8947;-83
2023/06/20 00:41:20;;;;;;;;;8.00;8.00;;;;;;;;5048928;28;8861;-82
2023/06/20 00:43:48;;;;;;;;;9.60;9.60;;;;;;;;5052603;28;8827;-83
2023/06/20 00:46:19;;;;;;;;;11.60;8.60;;;;;;;;5059146;28;8888;-83
2023/06/20 00:48:49;;;;;;;;;9.80;9.80;;;;;;;;5049680;28;8861;-82
2023/06/20 00:51:18;;;;;;;;;9.00;9.00;;;;;;;;5049891;28;8862;-83
2023/06/20 00:53:48;;;;;;;;;8.80;8.80;;;;;;;;5063416;28;8849;-83
2023/06/20 00:56:15;;;;;;;;;8.60;8.60;;;;;;;;5049956;28;8873;-82
2023/06/20 00:58:43;;;;;;;;;9.20;9.20;;;;;;;;5050197;28;8869;-82
2023/06/20 01:01:10;;;;;;;;;10.60;10.60;;;;;;;;5051151;28;8805;-82
2023/06/20 01:03:37;;;;;;;;;10.80;9.80;;;;;;;;5038305;28;8883;-83
2023/06/20 01:06:12;;;;;;;;;8.80;8.00;;;;;;;;5052119;28;8853;-82
2023/06/20 01:08:47;;;;;;;;;9.80;9.80;;;;;;;;5052455;28;8887;-83
2023/06/20 01:11:25;;;;;;;;;7.80;7.80;;;;;;;;5062883;28;8874;-82
2023/06/20 01:13:57;;;;;;;;;6.20;6.20;;;;;;;;5048054;28;8897;-82
2023/06/20 01:16:31;;;;;;;;;8.60;7.80;;;;;;;;5056389;28;9026;-81
2023/06/20 01:19:03;;;;;;;;;10.00;8.40;;;;;;;;5049121;28;8857;-81
2023/06/20 01:21:35;;;;;;;;;7.60;7.60;;;;;;;;5049055;28;8861;-81
2023/06/20 01:24:10;;;;;;;;;11.60;9.80;;;;;;;;5048643;28;8893;-81
2023/06/20 01:26:42;;;;;;;;;7.00;7.00;;;;;;;;5048726;28;8858;-81
2023/06/20 01:29:16;;;;;;;;;7.40;7.40;;;;;;;;5049634;28;8849;-81
2023/06/20 01:31:48;;;;;;;;;8.00;8.00;;;;;;;;5049077;28;8838;-80
2023/06/20 01:34:18;;;;;;;;;8.20;7.00;;;;;;;;5046621;28;8881;-81
2023/06/20 01:36:51;;;;;;;;;9.60;9.60;;;;;;;;5057956;28;8866;-83
2023/06/20 01:39:25;;;;;;;;;8.40;7.40;;;;;;;;5049017;28;8853;-82
2023/06/20 01:41:54;;;;;;;;;4.60;4.60;;;;;;;;5049253;28;8868;-81
2023/06/20 01:44:23;;;;;;;;;6.80;6.00;;;;;;;;5049153;28;8911;-81
2023/06/20 01:46:51;;;;;;;;;8.20;8.20;;;;;;;;5052936;28;8866;-82
2023/06/20 01:49:19;;;;;;;;;12.60;9.20;;;;;;;;5057952;28;8973;-83
2023/06/20 01:51:49;;;;;;;;;7.00;7.00;;;;;;;;5051567;28;8897;-83
2023/06/20 01:54:19;;;;;;;;;8.20;6.80;;;;;;;;5050349;28;8853;-82
2023/06/20 01:56:48;;;;;;;;;9.60;8.00;;;;;;;;5052383;28;9008;-82
2023/06/20 01:59:16;;;;;;;;;7.60;7.40;;;;;;;;5053235;28;9664;-83
2023/06/20 02:01:45;;;;;;;;;11.00;11.00;;;;;;;;5051732;28;8920;-83
2023/06/20 02:04:13;;;;;;;;;7.40;7.20;;;;;;;;5056178;28;8928;-83
2023/06/20 02:06:40;;;;;;;;;8.80;8.80;;;;;;;;5060367;28;8869;-84
2023/06/20 02:09:08;;;;;;;;;8.00;8.00;;;;;;;;5055334;28;8847;-84
2023/06/20 02:11:37;;;;;;;;;6.40;6.40;;;;;;;;5061785;28;9009;-82
2023/06/20 02:14:04;;;;;;;;;6.40;6.40;;;;;;;;5051540;28;8889;-82
2023/06/20 02:16:32;;;;;;;;;7.80;7.80;;;;;;;;5052151;28;8996;-83
2023/06/20 02:18:59;;;;;;;;;8.20;6.80;;;;;;;;5057447;28;8851;-82
2023/06/20 02:21:29;;;;;;;;;7.60;7.60;;;;;;;;5060243;28;8876;-82
2023/06/20 02:23:58;;;;;;;;;9.40;9.40;;;;;;;;5057567;28;9737;-82
2023/06/20 02:26:29;;;;;;;;;6.80;6.80;;;;;;;;5059065;28;8853;-81
2023/06/20 02:29:00;;;;;;;;;7.80;7.80;;;;;;;;5054250;28;8861;-81
2023/06/20 02:31:31;;;;;;;;;7.60;7.60;;;;;;;;5063150;28;8795;-81
2023/06/20 02:33:59;;;;;;;;;6.40;5.80;;;;;;;;5053865;28;8960;-82
2023/06/20 02:36:29;;;;;;;;;6.00;6.00;;;;;;;;5055524;28;8867;-81
2023/06/20 02:38:57;;;;;;;;;9.40;7.80;;;;;;;;5053513;28;8993;-81
2023/06/20 02:41:25;;;;;;;;;7.80;6.80;;;;;;;;5054455;28;8995;-82
2023/06/20 02:43:52;;;;;;;;;8.00;8.00;;;;;;;;5054113;28;8976;-81
2023/06/20 02:46:28;;;;;;;;;7.40;7.20;;;;;;;;5060977;28;8847;-81
2023/06/20 02:49:03;;;;;;;;;9.60;8.00;;;;;;;;5062115;28;9019;-83
2023/06/20 02:51:37;;;;;;;;;8.20;8.20;;;;;;;;5056183;28;8855;-82
2023/06/20 02:54:10;;;;;;;;;7.80;7.20;;;;;;;;5069596;28;8877;-83
2023/06/20 02:56:38;;;;;;;;;9.50;6.75;;;;;;;;5068020;28;8894;-83
2023/06/20 02:59:08;;;;;;;;;6.60;6.40;;;;;;;;5068768;28;8873;-82
2023/06/20 03:01:37;;;;;;;;;7.25;7.00;;;;;;;;5050434;28;8821;-82
2023/06/20 03:04:08;;;;;;;;;5.40;5.40;;;;;;;;5050770;28;8999;-81
2023/06/20 03:06:37;;;;;;;;;6.60;6.60;;;;;;;;5050734;28;8980;-82
2023/06/20 03:09:05;;;;;;;;;6.60;6.60;;;;;;;;5050919;28;8877;-82
2023/06/20 03:11:33;;;;;;;;;8.40;6.20;;;;;;;;5052240;28;8861;-83
2023/06/20 03:14:01;;;;;;;;;5.40;5.40;;;;;;;;5052554;28;8839;-83
2023/06/20 03:16:28;;;;;;;;;5.00;5.00;;;;;;;;5051041;28;8891;-82
2023/06/20 03:18:57;;;;;;;;;7.00;6.60;;;;;;;;5049259;28;8886;-81
2023/06/20 03:21:27;;;;;;;;;7.40;7.40;;;;;;;;5060038;28;8862;-82
2023/06/20 03:23:54;;;;;;;;;7.00;7.00;;;;;;;;5066288;28;8846;-82
2023/06/20 03:26:24;;;;;;;;;0.00;0.00;;;;;;;;5068610;28;8980;-80
2023/06/20 03:28:51;;;;;;;;;7.40;6.60;;;;;;;;5066329;28;9015;-81
2023/06/20 03:31:20;;;;;;;;;7.40;7.40;;;;;;;;5068885;28;8795;-81
2023/06/20 03:33:47;;;;;;;;;6.60;5.60;;;;;;;;5055890;28;8932;-81
2023/06/20 03:36:16;;;;;;;;;5.00;5.00;;;;;;;;5070017;28;8916;-81
2023/06/20 03:38:44;;;;;;;;;5.00;5.00;;;;;;;;5050757;28;8865;-80
2023/06/20 03:41:11;;;;;;;;;5.20;5.20;;;;;;;;5054243;28;9062;-81
2023/06/20 03:43:39;;;;;;;;;5.00;5.00;;;;;;;;5065610;28;8888;-80
2023/06/20 03:46:06;;;;;;;;;5.80;5.80;;;;;;;;5060369;28;8948;-81
2023/06/20 03:48:33;;;;;;;;;7.80;7.80;;;;;;;;5049558;28;8972;-81
2023/06/20 03:51:00;;;;;;;;;5.80;5.60;;;;;;;;5049839;28;8960;-80
2023/06/20 03:53:29;;;;;;;;;4.60;4.60;;;;;;;;5051920;28;8979;-81
2023/06/20 03:55:56;;;;;;;;;5.60;5.60;;;;;;;;5045934;28;9011;-83
2023/06/20 03:58:25;;;;;;;;;7.00;5.00;;;;;;;;5051375;28;8877;-83
2023/06/20 04:00:52;;;;;;;;;4.40;4.40;;;;;;;;5057650;28;8796;-80
2023/06/20 04:03:20;;;;;;;;;8.60;8.60;;;;;;;;5049827;28;9004;-81
2023/06/20 04:05:47;;;;;;;;;3.80;3.80;;;;;;;;5050908;28;8853;-82
2023/06/20 04:08:14;;;;;;;;;6.20;6.20;;;;;;;;5057419;28;8857;-84
2023/06/20 04:10:43;;;;;;;;;6.60;5.80;;;;;;;;5059450;28;8908;-79
2023/06/20 04:13:10;;;;;;;;;7.00;5.80;;;;;;;;5059207;28;8857;-81
2023/06/20 04:15:37;;;;;;;;;7.20;5.80;;;;;;;;5060157;28;8931;-82
2023/06/20 04:18:05;;;;;;;;;8.40;6.60;;;;;;;;5059116;28;8899;-82
2023/06/20 04:20:32;;;;;;;;;6.60;6.00;;;;;;;;5064166;28;8902;-81
2023/06/20 04:22:59;;;;;;;;;6.40;6.40;;;;;;;;5066356;28;8937;-82
2023/06/20 04:25:27;;;;;;;;;8.00;8.00;;;;;;;;5060191;28;8970;-82
2023/06/20 04:27:58;;;;;;;;;9.40;9.40;;;;;;;;5055987;28;8865;-82
2023/06/20 04:30:25;;;;;;;;;5.80;5.40;;;;;;;;5062234;28;9462;-81
2023/06/20 04:32:53;;;;;;;;;6.00;4.60;;;;;;;;5055835;28;8874;-81
2023/06/20 04:35:21;;;;;;;;;7.60;6.60;;;;;;;;5057870;28;8854;-81
2023/06/20 04:37:51;;;;;;;;;6.60;6.60;;;;;;;;5056160;28;8857;-80
2023/06/20 04:40:21;;;;;;;;;8.00;8.00;;;;;;;;5054642;28;8863;-81
2023/06/20 04:42:49;;;;;;;;;6.00;6.00;;;;;;;;5053562;28;8985;-81
2023/06/20 04:45:17;;;;;;;;;5.80;3.80;;;;;;;;5049156;28;8858;-81
2023/06/20 04:47:50;;;;;;;;;6.00;4.40;;;;;;;;5049755;28;8849;-81
2023/06/20 04:50:17;;;;;;;;;6.20;5.80;;;;;;;;5050068;28;8989;-83
2023/06/20 04:52:45;;;;;;;;;6.40;4.60;;;;;;;;5049018;28;8839;-84
2023/06/20 04:55:12;;;;;;;;;4.80;4.80;;;;;;;;5058275;28;8839;-78
2023/06/20 04:57:39;;;;;;;;;7.40;5.20;;;;;;;;5051468;28;8874;-80
2023/06/20 05:00:12;;;;;;;;;5.80;5.80;;;;;;;;5048883;28;8861;-80
2023/06/20 05:02:42;;;;;;;;;4.20;4.20;;;;;;;;5048777;28;8927;-79
2023/06/20 05:05:09;;;;;;;;;5.40;5.40;;;;;;;;5048981;28;8956;-79
2023/06/20 05:07:37;;;;;;;;;5.80;5.60;;;;;;;;5048531;28;8976;-80
2023/06/20 05:10:05;;;;;;;;;6.40;5.00;;;;;;;;5048820;28;8846;-80
2023/06/20 05:12:32;;;;;;;;;8.80;8.00;;;;;;;;5048193;28;8853;-79
2023/06/20 05:15:00;;;;;;;;;8.00;8.00;;;;;;;;5048603;28;8876;-81
2023/06/20 05:17:27;;;;;;;;;6.20;6.20;;;;;;;;5048159;28;8858;-79
2023/06/20 05:19:56;;;;;;;;;3.60;3.60;;;;;;;;5048605;28;8885;-80
2023/06/20 05:22:23;;;;;;;;;5.40;5.40;;;;;;;;5048294;28;8837;-80
2023/06/20 05:24:53;;;;;;;;;5.00;5.00;;;;;;;;5047913;28;9020;-78
2023/06/20 05:27:20;;;;;;;;;5.00;5.00;;;;;;;;5048862;28;9682;-80
2023/06/20 05:29:47;;;;;;;;;6.00;6.00;;;;;;;;5049048;28;8877;-80
2023/06/20 05:32:15;;;;;;;;;4.60;4.60;;;;;;;;5048054;28;8814;-80
2023/06/20 05:34:42;;;;;;;;;5.00;5.00;;;;;;;;5049232;28;8861;-80
2023/06/20 05:37:10;;;;;;;;;6.40;5.60;;;;;;;;5048479;28;8968;-81
2023/06/20 05:39:38;;;;;;;;;8.00;7.00;;;;;;;;5049820;28;8891;-81
2023/06/20 05:42:05;;;;;;;;;4.20;4.20;;;;;;;;5048982;28;8972;-80
2023/06/20 05:44:33;;;;;;;;;5.00;3.60;;;;;;;;5050758;28;8958;-80
2023/06/20 05:47:00;;;;;;;;;6.60;5.00;;;;;;;;5062615;28;8869;-80
2023/06/20 05:49:27;;;;;;;;;7.40;5.60;;;;;;;;5063956;28;8869;-81
2023/06/20 05:51:55;;;;;;;;;5.80;4.80;;;;;;;;5060627;28;8936;-81
2023/06/20 05:54:24;;;;;;;;;3.00;3.00;;;;;;;;5056313;28;8844;-79
2023/06/20 05:56:51;;;;;;;;;4.00;4.00;;;;;;;;5060912;28;8975;-79
2023/06/20 05:59:22;;;;;;;;;4.80;3.60;;;;;;;;5054615;28;8870;-80
2023/06/20 06:01:49;;;;;;;;;4.60;4.20;;;;;;;;5059110;28;8813;-80
2023/06/20 06:04:17;;;;;;;;;6.00;6.00;;;;;;;;5058971;28;8909;-78
2023/06/20 06:06:47;;;;;;;;;6.00;3.00;;;;;;;;5057539;28;8849;-80
2023/06/20 06:09:14;;;;;;;;;6.40;5.40;;;;;;;;5062370;28;8862;-81
2023/06/20 06:11:43;;;;;;;;;5.20;4.80;;;;;;;;5051533;28;8894;-80
2023/06/20 06:14:15;;;;;;;;;4.60;3.60;;;;;;;;5060118;28;9663;-81
2023/06/20 06:16:44;;;;;;;;;4.20;4.20;;;;;;;;5047165;28;8972;-82
2023/06/20 06:19:11;;;;;;;;;5.00;5.00;;;;;;;;5047463;28;9620;-82
2023/06/20 06:21:40;;;;;;;;;3.80;3.80;;;;;;;;5051487;28;8973;-80
2023/06/20 06:24:09;;;;;;;;;5.60;4.60;;;;;;;;5046969;28;8878;-82
2023/06/20 06:26:36;;;;;;;;;4.00;4.00;;;;;;;;5056984;28;8855;-82
2023/06/20 06:29:05;;;;;;;;;4.00;4.00;;;;;;;;5052257;28;9762;-81
2023/06/20 06:31:35;;;;;;;;;3.00;3.00;;;;;;;;5055679;28;8779;-81
2023/06/20 06:34:06;;;;;;;;;6.60;5.00;;;;;;;;5052401;28;9008;-82
2023/06/20 06:36:36;;;;;;;;;4.80;4.80;;;;;;;;5051381;28;8851;-83
2023/06/20 06:39:07;;;;;;;;;5.20;5.20;;;;;;;;5048408;28;8865;-83
2023/06/20 06:41:35;;;;;;;;;4.40;4.40;;;;;;;;5052360;28;8930;-82
2023/06/20 06:44:04;;;;;;;;;5.80;5.80;;;;;;;;5052173;28;8869;-82
2023/06/20 06:46:31;;;;;;;;;5.00;5.00;;;;;;;;5064550;28;8975;-82
2023/06/20 06:48:58;;;;;;;;;4.60;4.60;;;;;;;;5053275;28;8869;-83
2023/06/20 06:51:34;;;;;;;;;5.00;5.00;;;;;;;;5053855;28;8854;-82
2023/06/20 06:54:02;;;;;;;;;4.60;4.60;;;;;;;;5053428;28;8884;-81
2023/06/20 06:56:32;;;;;;;;;6.40;3.40;;;;;;;;5063494;28;8861;-82
2023/06/20 06:59:00;;;;;;;;;4.80;4.80;;;;;;;;5052563;28;8962;-82
2023/06/20 07:01:36;;;;;;;;;6.40;6.00;;;;;;;;5051965;28;8800;-83
2023/06/20 07:04:06;;;;;;;;;5.60;5.40;;;;;;;;5055158;28;8864;-82
2023/06/20 07:06:34;;;;;;;;;4.80;4.80;;;;;;;;5051619;28;8870;-85
2023/06/20 07:09:01;;;;;;;;;6.40;6.40;;;;;;;;5053994;28;8850;-83
2023/06/20 07:11:28;;;;;;;;;8.00;7.60;;;;;;;;5052745;28;8912;-82
2023/06/20 07:13:58;;;;;;;;;6.20;5.00;;;;;;;;5053638;28;8958;-83
2023/06/20 07:16:27;;;;;;;;;6.60;6.40;;;;;;;;5062469;28;8855;-84
2023/06/20 07:18:56;;;;;;;;;3.80;3.80;;;;;;;;5065877;28;8865;-81
2023/06/20 07:21:23;;;;;;;;;8.00;5.80;;;;;;;;5052503;28;8849;-82
2023/06/20 07:23:51;;;;;;;;;6.20;4.80;;;;;;;;5052883;28;9639;-80
2023/06/20 07:26:18;;;;;;;;;5.00;5.00;;;;;;;;5054672;28;9016;-81
2023/06/20 07:28:49;;;;;;;;;6.20;6.20;;;;;;;;5058639;28;8861;-83
2023/06/20 07:31:17;;;;;;;;;6.20;6.00;;;;;;;;5068497;28;8830;-88
2023/06/20 07:33:48;;;;;;;;;7.80;7.00;;;;;;;;5064286;28;9013;-81
2023/06/20 07:36:17;;;;;;;;;5.20;5.20;;;;;;;;5053340;28;8861;-80
2023/06/20 07:38:44;;;;;;;;;7.20;5.40;;;;;;;;5051402;28;8964;-83
2023/06/20 07:41:11;;;;;;;;;6.00;6.00;;;;;;;;5056563;28;8860;-83
2023/06/20 07:43:38;;;;;;;;;7.80;7.80;;;;;;;;5049887;28;8873;-83
2023/06/20 07:46:06;;;;;;;;;8.60;7.40;;;;;;;;5059422;28;8888;-83
2023/06/20 07:48:33;;;;;;;;;7.80;7.80;;;;;;;;5049375;28;8865;-84
2023/06/20 07:51:00;;;;;;;;;6.60;6.60;;;;;;;;5054130;28;9732;-83
2023/06/20 07:53:29;;;;;;;;;7.60;7.60;;;;;;;;5052634;28;8855;-83
2023/06/20 07:55:56;;;;;;;;;9.40;8.60;;;;;;;;5049206;28;8984;-82
2023/06/20 07:58:23;;;;;;;;;10.00;10.00;;;;;;;;5049116;28;8915;-82
2023/06/20 08:00:56;;;;;;;;;8.60;7.60;;;;;;;;5049651;28;8848;-83
2023/06/20 08:03:24;;;;;;;;;8.00;7.60;;;;;;;;5049545;28;8854;-81
2023/06/20 08:05:52;;;;;;;;;10.80;9.00;;;;;;;;5049814;28;8919;-85
2023/06/20 08:08:21;;;;;;;;;9.20;7.40;;;;;;;;5050241;28;8871;-86
2023/06/20 08:10:52;;;;;;;;;7.20;5.80;;;;;;;;5049981;28;8947;-81
2023/06/20 08:13:25;;;;;;;;;4.60;4.60;;;;;;;;5041395;28;8857;-80
2023/06/20 08:15:52;;;;;;;;;7.60;7.60;;;;;;;;5059911;28;8869;-81
2023/06/20 08:18:20;;;;;;;;;8.80;8.00;;;;;;;;5066527;28;8846;-81
2023/06/20 08:20:47;;;;;;;;;9.00;7.60;;;;;;;;5061879;28;8849;-86
2023/06/20 08:23:14;;;;;;;;;8.60;7.20;;;;;;;;5067400;28;8885;-83
2023/06/20 08:25:44;;;;;;;;;9.80;9.80;;;;;;;;5063851;28;8857;-81
2023/06/20 08:28:13;;;;;;;;;10.80;10.80;;;;;;;;5068278;28;9649;-83
2023/06/20 08:30:41;;;;;;;;;11.40;11.40;;;;;;;;5059887;28;8811;-83
2023/06/20 08:33:08;;;;;;;;;9.60;9.60;;;;;;;;5063941;28;8914;-83
2023/06/20 08:35:35;;;;;;;;;12.40;9.40;;;;;;;;5058044;28;8835;-83
2023/06/20 08:38:05;;;;;;;;;9.60;9.60;;;;;;;;5049431;28;8853;-83
2023/06/20 08:40:33;;;;;;;;;10.00;10.00;;;;;;;;5049298;28;8881;-83
2023/06/20 08:43:01;;;;;;;;;10.80;10.80;;;;;;;;5048769;28;8869;-83
2023/06/20 08:45:30;;;;;;;;;11.00;8.20;;;;;;;;5056821;28;8981;-84
2023/06/20 08:47:58;;;;;;;;;10.40;9.80;;;;;;;;5068203;28;8859;-84
2023/06/20 08:50:26;;;;;;;;;12.80;11.40;;;;;;;;5069989;28;8838;-83
2023/06/20 08:52:55;;;;;;;;;9.40;9.40;;;;;;;;5052508;28;8978;-83
2023/06/20 08:55:24;;;;;;;;;9.20;9.20;;;;;;;;5049897;28;8944;-83
2023/06/20 08:57:52;;;;;;;;;13.00;11.00;;;;;;;;5054301;28;8934;-83
2023/06/20 09:00:20;;;;;;;;;11.00;10.60;;;;;;;;5060672;28;8857;-84
2023/06/20 09:02:49;;;;;;;;;8.40;8.00;;;;;;;;5050818;28;8843;-82
2023/06/20 09:05:17;;;;;;;;;9.00;9.00;;;;;;;;5062331;28;8854;-83
2023/06/20 09:07:48;;;;;;;;;10.40;10.40;;;;;;;;5050808;28;8857;-83
2023/06/20 09:10:21;;;;;;;;;10.60;10.60;;;;;;;;5049473;28;8888;-83
2023/06/20 09:12:50;;;;;;;;;10.60;10.60;;;;;;;;5053361;28;8950;-84
2023/06/20 09:15:18;;;;;;;;;7.00;7.00;;;;;;;;5067236;28;9085;-84
2023/06/20 09:17:52;;;;;;;;;9.40;9.40;;;;;;;;5057100;28;8863;-84
2023/06/20 09:20:20;;;;;;;;;11.20;9.60;;;;;;;;5067428;28;8986;-84
2023/06/20 09:22:48;;;;;;;;;10.80;8.80;;;;;;;;5068650;28;8838;-84
2023/06/20 09:25:21;;;;;;;;;10.40;10.40;;;;;;;;5051837;28;8837;-84
2023/06/20 09:27:50;;;;;;;;;10.80;10.80;;;;;;;;5048607;28;8858;-84
2023/06/20 09:30:18;;;;;;;;;10.00;10.00;;;;;;;;5061983;28;8870;-85
2023/06/20 09:32:48;;;;;;;;;8.80;8.00;;;;;;;;5049242;28;8895;-86
2023/06/20 09:35:17;;;;;;;;;10.20;9.20;;;;;;;;5067990;28;8871;-82
2023/06/20 09:37:46;;;;;;;;;7.80;7.20;;;;;;;;5058285;28;8964;-83
2023/06/20 09:40:15;;;;;;;;;9.00;9.00;;;;;;;;5048142;28;8889;-82
2023/06/20 09:42:43;;;;;;;;;12.80;12.60;;;;;;;;5049749;28;8849;-81
2023/06/20 09:45:12;;;;;;;;;10.00;9.40;;;;;;;;5049261;28;9012;-86
2023/06/20 09:47:40;;;;;;;;;11.20;10.20;;;;;;;;5048659;28;8975;-84
2023/06/20 09:50:09;;;;;;;;;10.00;10.00;;;;;;;;5048389;28;9813;-85
2023/06/20 09:52:43;;;;;;;;;8.40;8.40;;;;;;;;5050731;28;8849;-84
2023/06/20 09:55:12;;;;;;;;;8.80;8.40;;;;;;;;5049282;28;8939;-84
2023/06/20 09:57:44;;;;;;;;;10.60;10.60;;;;;;;;5048745;28;8975;-84
2023/06/20 10:00:16;;;;;;;;;8.60;8.60;;;;;;;;5049506;28;8985;-81
2023/06/20 10:02:45;;;;;;;;;11.20;11.00;;;;;;;;5049541;28;8909;-84
2023/06/20 10:05:14;;;;;;;;;8.00;8.00;;;;;;;;5050103;28;8861;-82
2023/06/20 10:07:44;;;;;;;;;10.00;10.00;;;;;;;;5049164;28;8845;-84
2023/06/20 10:10:13;;;;;;;;;11.80;11.80;;;;;;;;5049024;28;8865;-83
2023/06/20 10:12:41;;;;;;;;;10.60;8.60;;;;;;;;5048430;28;8857;-83
2023/06/20 10:15:09;;;;;;;;;9.20;9.20;;;;;;;;5063874;28;8886;-84
2023/06/20 10:17:46;;;;;;;;;11.60;11.60;;;;;;;;5059800;28;8991;-89
2023/06/20 10:20:26;;;;;;;;;12.00;12.00;;;;;;;;5056624;28;8962;-87
2023/06/20 10:22:58;;;;;;;;;12.00;12.00;;;;;;;;5055133;28;9003;-84
2023/06/20 10:25:26;;;;;;;;;11.40;11.40;;;;;;;;5054619;28;8870;-82
2023/06/20 10:27:58;;;;;;;;;10.80;10.80;;;;;;;;5054177;28;8877;-83
2023/06/20 10:31:00;;;;;;;;;14.60;12.60;;;;;;;;5052763;28;8797;-86
2023/06/20 10:33:28;;;;;;;;;11.20;10.00;;;;;;;;5053969;28;8952;-85
2023/06/20 10:35:57;;;;;;;;;14.00;13.20;;;;;;;;5057426;28;8877;-83
2023/06/20 10:38:26;;;;;;;;;12.20;12.20;;;;;;;;5056297;28;8849;-85
2023/06/20 10:41:10;;;;;;;;;11.80;11.20;;;;;;;;5055569;28;9020;-81
2023/06/20 10:43:56;;;;;;;;;16.00;11.00;;;;;;;;5042651;28;8951;-84
2023/06/20 10:46:46;;;;;;;;;11.80;10.80;;;;;;;;5053070;28;8881;-83
2023/06/20 10:49:18;;;;;;;;;12.40;11.40;;;;;;;;5052372;28;8858;-82
2023/06/20 10:51:45;;;;;;;;;9.60;9.60;;;;;;;;5057922;28;8854;-89
2023/06/20 10:54:18;;;;;;;;;9.80;9.80;;;;;;;;5067928;28;8994;-80
2023/06/20 10:56:50;;;;;;;;;12.00;12.00;;;;;;;;5064238;28;8858;-82
2023/06/20 10:59:21;;;;;;;;;11.80;11.00;;;;;;;;5051708;28;8861;-84
2023/06/20 11:01:49;;;;;;;;;11.60;11.60;;;;;;;;5049556;28;9659;-84
2023/06/20 11:04:19;;;;;;;;;12.00;12.00;;;;;;;;5051115;28;8879;-79
2023/06/20 11:06:50;;;;;;;;;12.80;12.00;;;;;;;;5041794;28;8862;-81
2023/06/20 11:09:24;;;;;;;;;11.60;11.60;;;;;;;;5053334;28;8859;-80
2023/06/20 11:11:54;;;;;;;;;12.60;12.60;;;;;;;;5050994;28;8877;-82
2023/06/20 11:14:25;;;;;;;;;9.40;9.40;;;;;;;;5050532;28;8869;-82
2023/06/20 11:16:53;;;;;;;;;15.20;13.60;;;;;;;;5050828;28;8845;-81
2023/06/20 11:19:26;;;;;;;;;13.60;11.60;;;;;;;;5052068;28;8853;-81
2023/06/20 11:21:53;;;;;;;;;13.20;13.20;;;;;;;;5051217;28;9659;-80
2023/06/20 11:24:25;;;;;;;;;11.00;11.00;;;;;;;;5051639;28;8901;-79
2023/06/20 11:26:52;;;;;;;;;13.60;13.60;;;;;;;;5050743;28;8857;-80
2023/06/20 11:29:23;;;;;;;;;14.80;11.40;;;;;;;;5052332;28;8972;-81
2023/06/20 11:32:09;;;;;;;;;11.00;11.00;;;;;;;;5054756;28;8806;-79
2023/06/20 11:34:53;;;;;;;;;9.20;9.20;;;;;;;;5044761;28;8841;-79
2023/06/20 11:37:24;;;;;;;;;13.80;11.40;;;;;;;;5054644;28;8849;-81
2023/06/20 11:39:55;;;;;;;;;9.00;9.00;;;;;;;;5067794;28;8843;-82
2023/06/20 11:42:23;;;;;;;;;12.80;12.80;;;;;;;;5043867;28;8880;-86
2023/06/20 11:44:50;;;;;;;;;10.20;10.20;;;;;;;;5053100;28;8987;-85
2023/06/20 11:47:20;;;;;;;;;13.60;13.60;;;;;;;;5053807;28;8983;-86
2023/06/20 11:49:47;;;;;;;;;12.60;12.60;;;;;;;;5052986;28;8849;-87
2023/06/20 11:52:15;;;;;;;;;15.80;14.80;;;;;;;;5051499;28;8886;-91
2023/06/20 11:54:49;;;;;;;;;12.40;12.40;;;;;;;;5055598;28;8862;-90
2023/06/20 11:57:30;;;;;;;;;10.40;10.40;;;;;;;;5058114;28;8865;-82
2023/06/20 12:00:05;;;;;;;;;13.20;11.80;;;;;;;;5053902;28;8857;-91
2023/06/20 12:02:35;;;;;;;;;13.80;11.80;;;;;;;;5052312;28;8819;-83
2023/06/20 12:05:03;;;;;;;;;11.00;10.60;;;;;;;;5063323;28;8863;-85
2023/06/20 12:07:33;;;;;;;;;12.80;11.00;;;;;;;;5057019;28;8862;-90
2023/06/20 12:10:08;;;;;;;;;11.00;10.80;;;;;;;;5051661;28;8872;-85
2023/06/20 12:12:37;;;;;;;;;12.20;11.80;;;;;;;;5063966;28;8876;-87
2023/06/20 12:15:05;;;;;;;;;11.20;11.20;;;;;;;;5057408;28;8877;-89
2023/06/20 12:17:32;;;;;;;;;13.60;13.60;;;;;;;;5059149;28;8865;-85
2023/06/20 12:20:00;;;;;;;;;9.20;9.20;;;;;;;;5053391;28;8861;-84
2023/06/20 12:22:28;;;;;;;;;12.00;12.00;;;;;;;;5063990;28;8984;-87
2023/06/20 12:24:56;;;;;;;;;13.20;13.20;;;;;;;;5051690;28;8970;-89
2023/06/20 12:27:35;;;;;;;;;12.40;10.80;;;;;;;;5058161;28;8867;-93
2023/06/20 12:30:04;;;;;;;;;9.40;9.40;;;;;;;;5051380;28;8841;-81
2023/06/20 12:32:31;;;;;;;;;15.00;13.20;;;;;;;;5054219;28;8992;-86
2023/06/20 12:34:59;;;;;;;;;13.20;13.20;;;;;;;;5049149;28;8857;-82
2023/06/20 12:37:26;;;;;;;;;13.60;11.80;;;;;;;;5049240;28;8972;-84
2023/06/20 12:39:54;;;;;;;;;12.80;12.00;;;;;;;;5049103;28;8850;-82
2023/06/20 12:42:26;;;;;;;;;16.80;15.60;;;;;;;;5048367;28;8841;-79
2023/06/20 12:44:53;;;;;;;;;13.40;13.40;;;;;;;;5049292;28;9627;-82
2023/06/20 12:47:22;;;;;;;;;17.00;16.80;;;;;;;;5049519;28;8861;-79
2023/06/20 12:49:52;;;;;;;;;15.60;14.00;;;;;;;;5049633;28;8867;-84
2023/06/20 12:52:22;;;;;;;;;16.80;15.80;;;;;;;;5049462;28;8853;-81
2023/06/20 12:54:51;;;;;;;;;15.80;14.40;;;;;;;;5048172;28;8885;-80
2023/06/20 12:57:18;;;;;;;;;15.40;14.40;;;;;;;;5049968;28;8865;-82
2023/06/20 12:59:45;;;;;;;;;16.80;16.80;;;;;;;;5049703;28;8913;-80
2023/06/20 13:02:12;;;;;;;;;15.60;14.20;;;;;;;;5049202;28;8848;-82
2023/06/20 13:04:44;;;;;;;;;16.80;13.80;;;;;;;;5042533;28;8960;-80
2023/06/20 13:07:12;;;;;;;;;16.20;13.60;;;;;;;;5053015;28;8869;-80
2023/06/20 13:09:39;;;;;;;;;15.00;13.80;;;;;;;;5052352;28;8876;-80
2023/06/20 13:12:08;;;;;;;;;15.00;13.80;;;;;;;;5051636;28;8995;-79
2023/06/20 13:14:35;;;;;;;;;10.40;10.40;;;;;;;;5050403;28;8950;-80
2023/06/20 13:17:05;;;;;;;;;13.80;12.20;;;;;;;;5053587;28;8853;-83
2023/06/20 13:19:32;;;;;;;;;14.00;14.00;;;;;;;;5050936;28;8846;-81
2023/06/20 13:22:02;;;;;;;;;12.00;12.00;;;;;;;;5051545;28;8843;-80
2023/06/20 13:24:31;;;;;;;;;15.00;15.00;;;;;;;;5051269;28;8857;-84
2023/06/20 13:26:59;;;;;;;;;12.80;12.80;;;;;;;;5048620;28;8862;-80
2023/06/20 13:29:26;;;;;;;;;13.00;12.80;;;;;;;;5048551;28;8976;-82
2023/06/20 13:31:55;;;;;;;;;11.60;10.40;;;;;;;;5059345;28;8797;-82
2023/06/20 13:34:22;;;;;;;;;9.20;9.20;;;;;;;;5059681;28;8847;-82
2023/06/20 13:36:50;;;;;;;;;10.00;9.60;;;;;;;;5051721;28;8896;-80
2023/06/20 13:39:19;;;;;;;;;9.80;9.80;;;;;;;;5053123;28;8869;-83
2023/06/20 13:41:46;;;;;;;;;8.60;8.60;;;;;;;;5054358;28;8849;-78
2023/06/20 13:44:13;;;;;;;;;9.00;9.00;;;;;;;;5053208;28;8837;-81
2023/06/20 13:46:42;;;;;;;;;8.20;8.20;;;;;;;;5054123;28;8873;-79
2023/06/20 13:49:10;;;;;;;;;6.80;6.80;;;;;;;;5060042;28;9645;-81
2023/06/20 13:51:39;;;;;;;;;5.80;5.80;;;;;;;;5062828;28;9000;-80
2023/06/20 13:54:07;;;;;;;;;7.00;7.00;;;;;;;;5064099;28;8864;-79
2023/06/20 13:56:35;;;;;;;;;7.80;7.40;;;;;;;;5059220;28;8958;-81
2023/06/20 13:59:03;;;;;;;;;7.20;6.40;;;;;;;;5068731;28;8851;-79
2023/06/20 14:01:30;;;;;;;;;8.20;8.20;;;;;;;;5060115;28;8822;-81
2023/06/20 14:04:01;;;;;;;;;9.40;9.40;;;;;;;;5054958;28;8861;-76
2023/06/20 14:06:28;;;;;;;;;9.00;9.00;;;;;;;;5060138;28;8861;-81
2023/06/20 14:08:55;;;;;;;;;9.60;8.20;;;;;;;;5056074;28;8911;-81
2023/06/20 14:11:25;;;;;;;;;8.00;8.00;;;;;;;;5059556;28;8875;-78
2023/06/20 14:13:55;;;;;;;;;8.40;8.40;;;;;;;;5057101;28;8847;-84
2023/06/20 14:16:23;;;;;;;;;7.00;6.80;;;;;;;;5058565;28;8966;-83
2023/06/20 14:18:51;;;;;;;;;8.00;8.00;;;;;;;;5053273;28;8873;-79
2023/06/20 14:21:21;;;;;;;;;7.20;7.20;;;;;;;;5052564;28;8861;-80
2023/06/20 14:23:48;;;;;;;;;8.40;8.40;;;;;;;;5055220;28;8871;-84
2023/06/20 14:26:18;;;;;;;;;8.20;8.20;;;;;;;;5060627;28;8872;-82
2023/06/20 14:28:47;;;;;;;;;9.60;8.00;;;;;;;;5055731;28;8942;-79
2023/06/20 14:31:16;;;;;;;;;8.00;8.00;;;;;;;;5054905;28;8810;-83
2023/06/20 14:33:43;;;;;;;;;10.20;9.60;;;;;;;;5056007;28;8865;-84
2023/06/20 14:36:10;;;;;;;;;8.20;8.20;;;;;;;;5057070;28;8854;-84
2023/06/20 14:38:41;;;;;;;;;11.40;11.40;;;;;;;;5055679;28;8995;-81
2023/06/20 14:41:08;;;;;;;;;9.60;9.00;;;;;;;;5057106;28;8851;-87
2023/06/20 14:43:35;;;;;;;;;7.00;7.00;;;;;;;;5054566;28;8842;-87
2023/06/20 14:46:03;;;;;;;;;5.00;5.00;;;;;;;;5058043;28;8950;-86
2023/06/20 14:48:33;;;;;;;;;5.00;5.00;;;;;;;;5055408;28;8907;-85
2023/06/20 14:51:00;;;;;;;;;7.60;6.80;;;;;;;;5055581;28;8964;-79
2023/06/20 14:53:27;;;;;;;;;6.80;6.80;;;;;;;;5054388;28;8885;-79
2023/06/20 14:55:54;;;;;;;;;5.80;5.80;;;;;;;;5054785;28;9617;-86
2023/06/20 14:58:22;;;;;;;;;8.20;8.20;;;;;;;;5054986;28;8881;-86
2023/06/20 15:00:49;;;;;;;;;7.20;7.20;;;;;;;;5063900;28;8821;-87